Honolulu, HI

12:32 PM HST on May 05, 2015 (GMT -1000)
Pacific Heights | | Change Station
CLOSE
Current Station
Personal Weather Station
Location: Honolulu, HI
Elevation: 528 ft
Nearby Weather Stations

Elev 528 ft 21.33 °N, 157.84 °W | Updated 7 seconds ago

Mostly Cloudy
Mostly Cloudy
76.1 °F
Feels Like 78 °F
N
2.0
Wind Variable Wind from ESE
Gusts 11.0 mph

Today
High -- | Low -- °F
--% Chance of Precip.
Yesterday
High -- | Low -- °F
Precip. -- in
5:58 AM 6:58 PM
Full, 97% visible
Pressure 30.07 in
Visibility 10.0 miles
Clouds Few 2700 ft
Scattered Clouds 4700 ft
Mostly Cloudy 7500 ft
Heat Index 78 °F
Dew Point 66 °F
Humidity 70%
Rainfall 0.87 in
Snow Depth Not available.
UV 6 out of 12
Pollen Not available.
Air Quality Not available.
Flu Activity Regional
METAR PHNL 052053Z 05015KT 10SM FEW027TCU SCT047 BKN075 26/19 A3007 RMK AO2 RAB25E34 SLP183 TCU S VCSH NE P0000 60001 T02560189 50003

More Conditions Fewer Conditions

Pressure 30.07 in
Visibility 10.0 miles
Clouds Few 2700 ft
Scattered Clouds 4700 ft
Mostly Cloudy 7500 ft
Heat Index 78 °F
Dew Point 66 °F
Humidity 70%
Rainfall 0.87 in
Snow Depth Not available.
UV 6 out of 12
Pollen Not available.
Air Quality Not available.
Flu Activity Regional
METAR PHNL 052053Z 05015KT 10SM FEW027TCU SCT047 BKN075 26/19 A3007 RMK AO2 RAB25E34 SLP183 TCU S VCSH NE P0000 60001 T02560189 50003

More Conditions Fewer Conditions

10-Day Weather Forecast

Almanac

Astronomy

May. 05, 2015 Rise Set
Actual Time
Civil Twilight
Nautical Twilight
Astronomical Twilight
Moon
Length of Visible Light
Length of Day
Tomorrow will be .
, % of the Moon is Illuminated

Today's Extremes

State Highs State Lows

Community

WunderPhotos

Upload Photos

1,818,998 photos uploaded!

WunderBlogs® & News

Nearby

Air Quality

  Air Quality AQ Index Pollutant
Not available.

Snow Depth

Station Depth Elevation

Earthquake Activity

City Distance Mag. Time & Date
Minimum magnitude displayed is 2.5.

Coastal Water Temperatures

Place Temperature

Stations

Nearby Weather Stations

Station Location Temp. Windchill Dew Point Humidity Wind Precip. Elev Updated Type